Time;durP1;ratioP1;P1;durP2;ratioP2;P2;SDS_P1;SDS_P2;PMS_P1;PMS_P2;Temp;Humidity;BMP_temperature;BMP_pressure;BME280_temperature;BME280_humidity;BME280_pressure;Samples;Min_cycle;Max_cycle;Signal;HPM_P1;HPM_P2
2022/01/16 00:06:10;;;;;;;5.87;1.70;;;;;;;1.74;73.96;148105.19;1732990;82;21034;-59
2022/01/16 00:08:37;;;;;;;6.25;2.37;;;;;;;1.74;73.98;148105.19;1771500;79;21091;-58
2022/01/16 00:11:03;;;;;;;7.10;2.30;;;;;;;1.73;74.02;148102.63;1792241;79;21470;-59
2022/01/16 00:13:30;;;;;;;7.10;2.30;;;;;;;1.73;74.08;148102.63;1780568;79;21060;-59
2022/01/16 00:15:56;;;;;;;7.08;2.12;;;;;;;1.73;74.13;148102.63;1777721;80;21048;-61
2022/01/16 00:18:27;;;;;;;6.08;2.05;;;;;;;1.73;74.15;148103.88;1789393;79;21027;-61
2022/01/16 00:20:52;;;;;;;7.35;2.25;;;;;;;1.74;74.11;148106.45;1787674;79;20994;-60
2022/01/16 00:23:24;;;;;;;8.23;2.70;;;;;;;1.74;74.15;148106.45;1783046;79;21037;-60
2022/01/16 00:25:47;;;;;;;6.92;1.75;;;;;;;1.74;74.15;148105.19;1790596;79;21427;-60
2022/01/16 00:28:14;;;;;;;5.47;2.10;;;;;;;1.73;74.08;148103.88;1772110;78;21681;-60
2022/01/16 00:30:40;;;;;;;8.78;2.75;;;;;;;1.73;74.26;148102.63;1781139;80;21034;-60
2022/01/16 00:33:07;;;;;;;11.48;3.20;;;;;;;1.70;74.22;148097.47;1787120;79;21024;-59
2022/01/16 00:35:34;;;;;;;10.72;2.50;;;;;;;1.71;74.33;148100.05;1789569;79;21076;-60
2022/01/16 00:38:01;;;;;;;4.80;2.02;;;;;;;1.71;74.28;148100.05;1787657;79;21370;-60
2022/01/16 00:40:29;;;;;;;5.80;2.30;;;;;;;1.73;74.29;148102.63;1783528;79;21095;-60
2022/01/16 00:42:58;;;;;;;7.00;2.95;;;;;;;1.73;74.29;148102.63;1803112;78;21473;-60
2022/01/16 00:45:25;;;;;;;6.65;2.83;;;;;;;1.71;74.45;148100.05;1808657;78;21105;-60
2022/01/16 00:47:52;;;;;;;8.55;2.40;;;;;;;1.71;74.53;148100.05;1789626;78;21145;-62
2022/01/16 00:50:19;;;;;;;7.80;3.52;;;;;;;1.72;74.45;148101.31;1807199;78;21103;-60
2022/01/16 00:52:46;;;;;;;8.43;2.58;;;;;;;1.73;74.38;148102.63;1794280;78;21302;-63
2022/01/16 00:55:13;;;;;;;6.12;2.30;;;;;;;1.73;74.41;148102.63;1815111;78;21043;-58
2022/01/16 00:57:40;;;;;;;8.30;2.30;;;;;;;1.74;74.31;148105.19;1805617;78;21085;-60
2022/01/16 01:00:09;;;;;;;7.70;2.00;;;;;;;1.74;74.44;148105.19;1784778;80;21011;-61
2022/01/16 01:02:35;;;;;;;54.13;19.90;;;;;;;1.75;74.39;148109.03;1798265;78;21271;-60
2022/01/16 01:05:01;;;;;;;8.23;2.60;;;;;;;1.75;74.53;148109.03;1777032;80;20925;-60
2022/01/16 01:07:28;;;;;;;8.83;2.37;;;;;;;1.76;74.30;148110.34;1758978;80;21686;-60
2022/01/16 01:09:55;;;;;;;5.67;2.37;;;;;;;1.77;74.34;148114.23;1761528;81;21052;-60
2022/01/16 01:12:40;;;;;;;10.70;3.00;;;;;;;1.79;74.34;148118.06;1760032;81;21060;-60
2022/01/16 01:15:08;;;;;;;28.23;9.48;;;;;;;1.82;74.21;148125.80;1756367;81;22052;-60
2022/01/16 01:17:36;;;;;;;17.92;6.97;;;;;;;1.82;74.16;148125.80;1748359;81;21075;-60
2022/01/16 01:20:01;;;;;;;18.62;7.87;;;;;;;1.83;74.08;148128.38;1760735;81;20972;-59
2022/01/16 01:22:28;;;;;;;17.15;4.95;;;;;;;1.80;74.08;148121.97;1758529;81;21217;-59
2022/01/16 01:24:54;;;;;;;43.90;10.93;;;;;;;1.81;74.03;148123.22;1758234;81;21460;-60
2022/01/16 01:27:23;;;;;;;15.08;6.00;;;;;;;1.79;74.20;148118.06;1746736;81;21714;-60
2022/01/16 01:30:00;;;;;;;33.67;12.20;;;;;;;1.78;74.22;148116.81;1751175;81;21136;-60
2022/01/16 01:32:18;;;;;;;46.73;19.07;;;;;;;1.79;74.33;148118.06;1747864;81;21453;-60
2022/01/16 01:34:47;;;;;;;23.57;9.88;;;;;;;1.79;74.42;148118.06;1755431;81;21029;-58
2022/01/16 01:37:13;;;;;;;11.63;3.25;;;;;;;1.79;74.36;148118.06;1757687;80;21007;-59
2022/01/16 01:39:40;;;;;;;9.83;2.90;;;;;;;1.79;74.18;148118.06;1737671;81;21028;-60
2022/01/16 01:42:10;;;;;;;5.25;1.98;;;;;;;1.79;74.07;148119.39;1747047;80;21124;-58
2022/01/16 01:52:53;;;;;;;6.17;2.27;;;;;;;1.77;73.90;148112.92;1775574;80;21484;-58
2022/01/16 01:55:20;;;;;;;5.12;1.95;;;;;;;1.76;73.78;148111.61;1776922;80;21107;-61
2022/01/16 01:57:47;;;;;;;6.15;2.33;;;;;;;1.77;73.75;148112.92;1777910;79;21081;-59
2022/01/16 02:00:17;;;;;;;5.53;2.40;;;;;;;1.78;73.63;148115.50;1778288;80;21029;-59
2022/01/16 02:03:07;;;;;;;6.42;2.30;;;;;;;1.77;73.56;148114.23;1770790;80;21018;-58
2022/01/16 02:05:16;;;;;;;10.50;2.25;;;;;;;1.77;73.50;148112.92;1775393;79;21086;-58
2022/01/16 02:07:43;;;;;;;7.05;2.60;;;;;;;1.75;73.52;148107.77;1762305;79;21659;-60
2022/01/16 02:10:11;;;;;;;12.93;3.42;;;;;;;1.74;73.57;148105.19;1766641;80;20961;-59
2022/01/16 02:12:42;;;;;;;5.00;2.37;;;;;;;1.75;73.45;148107.77;1775048;80;21056;-61
2022/01/16 02:15:33;;;;;;;9.80;2.40;;;;;;;1.75;73.46;148107.77;1744334;80;21068;-60
2022/01/16 02:28:51;;;;;;;6.87;2.70;;;;;;;1.75;73.61;148107.77;1742355;82;21120;-61
2022/01/16 02:31:21;;;;;;;9.48;2.58;;;;;;;1.74;73.55;148105.19;1720392;82;21120;-61
2022/01/16 02:36:30;;;;;;;6.08;2.20;;;;;;;1.70;73.15;148097.47;1723593;82;21044;-60
2022/01/16 02:39:07;;;;;;;7.37;2.70;;;;;;;1.70;73.27;148096.16;1714096;80;21052;-61
2022/01/16 02:41:34;;;;;;;4.40;1.72;;;;;;;1.71;73.33;148100.05;1766316;80;21104;-61
2022/01/16 02:44:11;;;;;;;6.70;2.40;;;;;;;1.73;73.09;148102.63;1760706;80;21018;-61
2022/01/16 02:48:57;;;;;;;6.80;2.58;;;;;;;1.71;72.76;148100.05;1754840;80;21398;-61
2022/01/16 02:51:26;;;;;;;7.80;2.50;;;;;;;1.71;72.67;148100.05;1757089;80;21301;-61
2022/01/16 02:53:53;;;;;;;5.83;2.10;;;;;;;1.73;72.48;148102.63;1763312;80;21049;-60
2022/01/16 02:56:20;;;;;;;6.50;2.42;;;;;;;1.74;72.23;148105.19;1743840;82;21559;-60
2022/01/16 02:58:47;;;;;;;6.78;1.95;;;;;;;1.74;72.07;148105.19;1766420;80;21121;-60
2022/01/16 03:01:14;;;;;;;5.97;1.77;;;;;;;1.75;71.99;148107.77;1733997;81;21067;-59
2022/01/16 03:03:40;;;;;;;6.33;1.92;;;;;;;1.75;71.76;148107.77;1745568;81;21048;-59
2022/01/16 03:06:07;;;;;;;8.30;2.10;;;;;;;1.73;71.62;148102.63;1735190;81;20949;-59
2022/01/16 03:08:34;;;;;;;5.92;1.80;;;;;;;1.72;71.53;148101.31;1739919;81;21019;-60
2022/01/16 03:11:15;;;;;;;5.60;2.25;;;;;;;1.73;71.38;148102.63;1807679;79;21123;-59
2022/01/16 03:13:33;;;;;;;4.42;1.87;;;;;;;1.74;71.23;148105.19;1787786;79;22201;-59
2022/01/16 03:16:00;;;;;;;8.10;1.98;;;;;;;1.74;71.09;148105.19;1812631;79;21044;-59
2022/01/16 03:23:39;;;;;;;;;;;;;;;1.75;70.79;148109.03;1797772;78;21132;-60
2022/01/16 03:26:07;;;;;;;4.28;1.57;;;;;;;1.75;70.68;148107.77;1802446;79;37501;-59
2022/01/16 03:28:34;;;;;;;7.33;1.72;;;;;;;1.75;70.55;148107.77;1783339;79;21069;-60
2022/01/16 03:31:01;;;;;;;7.10;2.02;;;;;;;1.76;70.50;148110.34;1810268;79;21032;-60
2022/01/16 03:33:28;;;;;;;6.75;1.87;;;;;;;1.75;70.51;148107.77;1800309;78;21135;-60
2022/01/16 03:35:54;;;;;;;4.78;1.72;;;;;;;1.76;70.49;148111.61;1801674;78;21751;-60
2022/01/16 03:38:21;;;;;;;7.85;1.90;;;;;;;1.74;70.60;148105.19;1784095;79;21131;-60
2022/01/16 03:40:48;;;;;;;4.62;1.90;;;;;;;1.71;70.74;148100.05;1804141;79;21045;-60
2022/01/16 03:43:15;;;;;;;4.08;1.92;;;;;;;1.70;70.87;148097.47;1771088;80;21055;-60
2022/01/16 03:45:45;;;;;;;8.15;1.85;;;;;;;1.70;70.87;148097.47;1784533;79;21185;-59
2022/01/16 03:48:14;;;;;;;5.60;2.20;;;;;;;1.70;70.85;148097.47;1791562;79;21537;-59
2022/01/16 03:50:40;;;;;;;8.80;2.10;;;;;;;1.71;70.73;148098.73;1781651;79;21040;-60
2022/01/16 03:53:07;;;;;;;5.45;1.95;;;;;;;1.71;70.70;148100.05;1774718;79;21052;-59
2022/01/16 03:55:34;;;;;;;5.65;2.10;;;;;;;1.72;70.58;148101.31;1792642;79;21063;-59
2022/01/16 03:58:01;;;;;;;6.10;2.25;;;;;;;1.70;70.61;148097.47;1754208;81;21010;-59
2022/01/16 04:00:28;;;;;;;5.28;2.10;;;;;;;1.69;70.62;148094.89;1749591;81;21121;-59
2022/01/16 04:02:55;;;;;;;8.70;2.40;;;;;;;1.70;70.59;148097.47;1762263;81;21063;-59
2022/01/16 04:05:22;;;;;;;8.15;2.17;;;;;;;1.70;70.64;148096.16;1747436;80;20982;-60
2022/01/16 04:07:49;;;;;;;11.33;2.27;;;;;;;1.71;70.75;148098.73;1807184;78;21291;-60
2022/01/16 04:10:15;;;;;;;7.85;2.00;;;;;;;1.72;70.80;148101.31;1790674;79;20971;-61
2022/01/16 04:12:44;;;;;;;4.10;1.65;;;;;;;1.72;70.96;148101.31;1804536;78;21111;-60
2022/01/16 04:17:42;;;;;;;6.97;2.40;;;;;;;1.72;71.25;148101.31;1801348;79;21044;-58
2022/01/16 04:20:15;;;;;;;6.20;2.42;;;;;;;1.71;71.44;148100.05;1785579;79;20989;-59
2022/01/16 04:22:40;;;;;;;7.55;2.67;;;;;;;1.70;71.50;148096.16;1795387;79;21046;-59
2022/01/16 04:25:08;;;;;;;6.30;2.47;;;;;;;1.71;71.60;148100.05;1783891;79;21533;-60
2022/01/16 04:27:34;;;;;;;4.40;2.12;;;;;;;1.73;71.63;148102.63;1774063;80;21030;-59
2022/01/16 04:30:01;;;;;;;7.30;2.90;;;;;;;1.70;71.70;148097.47;1797778;79;21022;-60
2022/01/16 04:32:27;;;;;;;8.60;2.12;;;;;;;1.71;71.82;148100.05;1792056;79;21426;-59
2022/01/16 04:34:54;;;;;;;9.40;2.30;;;;;;;1.71;71.89;148100.05;1792422;79;21037;-59
2022/01/16 04:37:22;;;;;;;6.80;2.35;;;;;;;1.71;72.03;148100.05;1797035;79;20968;-59
2022/01/16 04:39:51;;;;;;;10.05;2.83;;;;;;;1.71;71.97;148098.73;1785867;79;21101;-59
2022/01/16 04:45:04;;;;;;;4.67;2.08;;;;;;;1.75;71.80;148107.77;1783540;79;21056;-60
2022/01/16 04:47:31;;;;;;;6.10;2.30;;;;;;;1.75;71.65;148107.77;1761128;80;20995;-59
2022/01/16 04:49:58;;;;;;;8.03;2.50;;;;;;;1.73;71.63;148102.63;1782637;79;21125;-59
2022/01/16 04:52:25;;;;;;;6.85;2.25;;;;;;;1.73;71.62;148102.63;1789084;79;21476;-59
2022/01/16 04:54:51;;;;;;;5.65;2.50;;;;;;;1.74;71.63;148106.45;1782919;78;21023;-59
2022/01/16 04:57:18;;;;;;;7.03;2.33;;;;;;;1.75;71.60;148107.77;1782583;78;21508;-59
2022/01/16 04:59:45;;;;;;;6.22;2.25;;;;;;;1.74;71.67;148105.19;1789970;79;21057;-59
2022/01/16 05:02:12;;;;;;;8.08;2.30;;;;;;;1.74;71.76;148106.45;1778845;80;21527;-59
2022/01/16 05:04:40;;;;;;;7.78;2.60;;;;;;;1.74;71.81;148105.19;1776909;80;21162;-59
2022/01/16 05:07:07;;;;;;;11.20;2.70;;;;;;;1.74;71.78;148105.19;1777508;80;20932;-60
2022/01/16 05:09:34;;;;;;;6.65;2.52;;;;;;;1.74;71.78;148106.45;1776636;80;21069;-60
2022/01/16 05:12:07;;;;;;;5.22;2.42;;;;;;;1.74;71.85;148105.19;1784333;79;22292;-60
2022/01/16 05:17:15;;;;;;;7.15;2.60;;;;;;;1.70;72.10;148096.16;1775978;79;21447;-60
2022/01/16 05:19:42;;;;;;;7.70;2.52;;;;;;;1.70;72.16;148096.16;1775564;80;21105;-61
2022/01/16 05:22:08;;;;;;;6.50;2.87;;;;;;;1.67;72.32;148089.75;1774221;80;21010;-61
2022/01/16 05:24:36;;;;;;;7.55;2.67;;;;;;;1.66;72.40;148087.17;1784069;78;21044;-60
2022/01/16 05:27:06;;;;;;;7.42;2.52;;;;;;;1.65;72.50;148084.55;1780087;79;21082;-61
2022/01/16 05:29:33;;;;;;;13.68;3.70;;;;;;;1.63;72.66;148079.39;1791150;79;21283;-62
2022/01/16 05:32:00;;;;;;;5.33;2.50;;;;;;;1.61;72.74;148074.23;1780280;80;21015;-61
2022/01/16 05:34:29;;;;;;;8.80;3.00;;;;;;;1.60;72.94;148070.41;1778364;78;21508;-60
2022/01/16 05:36:55;;;;;;;9.43;2.65;;;;;;;1.59;73.00;148069.09;1777039;79;21473;-60
2022/01/16 05:39:21;;;;;;;6.62;2.65;;;;;;;1.59;73.12;148067.83;1773753;79;21787;-60
2022/01/16 05:41:47;;;;;;;7.80;2.87;;;;;;;1.60;73.15;148070.41;1750519;79;21026;-60
2022/01/16 05:44:14;;;;;;;11.15;3.35;;;;;;;1.57;73.17;148063.94;1783007;79;21452;-60
2022/01/16 05:46:40;;;;;;;7.80;3.17;;;;;;;1.57;73.21;148063.94;1759633;79;21057;-60
2022/01/16 05:49:08;;;;;;;8.28;3.45;;;;;;;1.56;73.31;148061.37;1766429;78;21391;-61
2022/01/16 05:51:35;;;;;;;5.60;2.62;;;;;;;1.58;73.29;148066.52;1784943;79;21804;-59
2022/01/16 05:54:02;;;;;;;6.10;2.90;;;;;;;1.58;73.20;148066.52;1789089;79;21022;-59
2022/01/16 05:56:28;;;;;;;7.83;2.70;;;;;;;1.56;73.27;148061.37;1746459;80;21490;-60
2022/01/16 05:58:55;;;;;;;6.97;2.90;;;;;;;1.58;73.29;148066.52;1782567;79;21038;-60
2022/01/16 06:01:22;;;;;;;6.42;2.83;;;;;;;1.59;73.24;148069.09;1793158;78;21016;-59
2022/01/16 06:03:48;;;;;;;7.37;2.50;;;;;;;1.60;73.25;148071.66;1784715;79;21136;-59
2022/01/16 06:06:15;;;;;;;10.03;3.10;;;;;;;1.61;73.14;148072.98;1788807;79;21069;-60
2022/01/16 06:08:44;;;;;;;5.50;2.33;;;;;;;1.62;73.18;148075.56;1788534;79;21480;-60
2022/01/16 06:11:12;;;;;;;5.40;2.67;;;;;;;1.64;73.16;148081.97;1764984;79;21492;-60
2022/01/16 06:13:41;;;;;;;14.13;3.08;;;;;;;1.65;73.03;148084.55;1786643;79;21093;-59
2022/01/16 06:16:08;;;;;;;6.65;3.00;;;;;;;1.66;72.99;148087.17;1782313;79;21029;-59
2022/01/16 06:18:34;;;;;;;7.17;2.92;;;;;;;1.67;73.12;148088.44;1792961;79;21363;-60
2022/01/16 06:21:01;;;;;;;8.63;2.72;;;;;;;1.69;73.11;148094.89;1786730;79;21093;-59
2022/01/16 06:23:27;;;;;;;8.78;2.95;;;;;;;1.73;72.98;148102.63;1782803;79;20970;-61
2022/01/16 06:25:54;;;;;;;7.75;2.70;;;;;;;1.74;72.87;148105.19;1786444;79;21031;-59
2022/01/16 06:28:23;;;;;;;5.92;2.47;;;;;;;1.74;72.86;148105.19;1790020;79;21171;-59
2022/01/16 06:30:49;;;;;;;12.00;3.58;;;;;;;1.74;72.89;148105.19;1780872;79;21598;-60
2022/01/16 06:33:17;;;;;;;10.15;3.12;;;;;;;1.74;72.89;148105.19;1788623;79;21018;-59
2022/01/16 06:35:43;;;;;;;8.68;2.92;;;;;;;1.74;72.88;148105.19;1785418;79;21074;-60
2022/01/16 06:38:10;;;;;;;9.65;3.15;;;;;;;1.70;72.95;148097.47;1791692;79;21459;-61
2022/01/16 06:40:36;;;;;;;8.15;2.87;;;;;;;1.68;73.09;148092.31;1787876;79;21121;-62
2022/01/16 06:43:03;;;;;;;9.70;2.92;;;;;;;1.66;73.18;148087.17;1762798;80;21060;-62
2022/01/16 06:45:30;;;;;;;8.23;2.30;;;;;;;1.64;73.30;148081.97;1801712;79;22197;-62
2022/01/16 06:47:58;;;;;;;9.60;2.85;;;;;;;1.63;73.41;148078.13;1800385;78;21089;-61
2022/01/16 06:50:25;;;;;;;9.70;2.72;;;;;;;1.65;73.63;148084.55;1797660;79;21566;-62
2022/01/16 06:52:52;;;;;;;7.60;3.35;;;;;;;1.70;73.58;148097.47;1792376;79;21074;-61
2022/01/16 06:55:19;;;;;;;8.28;2.95;;;;;;;1.71;73.52;148100.05;1807008;78;21552;-61
2022/01/16 06:57:45;;;;;;;10.18;3.08;;;;;;;1.74;73.52;148106.45;1791856;78;21087;-62
2022/01/16 07:00:13;;;;;;;12.25;2.92;;;;;;;1.75;73.47;148107.77;1762802;80;21418;-61
2022/01/16 07:02:40;;;;;;;10.13;2.87;;;;;;;1.79;73.41;148118.06;1787196;79;20955;-61
2022/01/16 07:05:09;;;;;;;8.18;2.92;;;;;;;1.82;73.36;148125.80;1792618;79;21439;-62
2022/01/16 07:07:37;;;;;;;12.07;2.92;;;;;;;1.83;73.25;148128.38;1804664;79;21025;-59
2022/01/16 07:10:05;;;;;;;7.83;2.40;;;;;;;1.84;73.40;148132.27;1801142;79;21057;-61
2022/01/16 07:12:31;;;;;;;8.50;2.87;;;;;;;1.86;73.14;148136.09;1789380;79;21811;-59
2022/01/16 07:15:00;;;;;;;9.55;3.35;;;;;;;1.88;73.03;148141.30;1806738;78;21084;-60
2022/01/16 07:17:28;;;;;;;8.88;3.20;;;;;;;1.88;72.98;148141.30;1796142;79;21034;-59
2022/01/16 07:19:55;;;;;;;8.80;2.70;;;;;;;1.86;72.96;148137.41;1800617;78;21711;-61
2022/01/16 07:22:23;;;;;;;10.13;2.83;;;;;;;1.86;73.02;148136.09;1800936;79;20991;-60
2022/01/16 07:24:50;;;;;;;9.65;2.55;;;;;;;1.88;72.94;148141.30;1794236;79;22358;-61
2022/01/16 07:27:17;;;;;;;7.72;2.65;;;;;;;1.90;72.82;148146.45;1803884;79;21006;-61
2022/01/16 07:29:44;;;;;;;10.13;3.58;;;;;;;1.94;72.81;148156.75;1770734;79;21838;-61
2022/01/16 07:32:10;;;;;;;8.78;2.87;;;;;;;1.99;72.91;148169.64;1811446;79;20961;-61
2022/01/16 07:34:37;;;;;;;14.13;3.30;;;;;;;2.08;72.41;148190.25;1795417;78;21066;-61
2022/01/16 07:37:04;;;;;;;5.75;2.62;;;;;;;2.12;72.10;148201.86;1806378;79;21024;-61
2022/01/16 07:39:31;;;;;;;8.38;2.70;;;;;;;2.16;71.82;148210.91;1795067;79;21089;-61
2022/01/16 07:41:58;;;;;;;9.58;2.80;;;;;;;2.20;71.50;148219.89;1779739;79;22656;-60
2022/01/16 07:44:25;;;;;;;10.38;2.65;;;;;;;2.25;71.53;148234.09;1789038;79;21376;-61
2022/01/16 07:46:51;;;;;;;10.13;2.85;;;;;;;2.34;71.40;148254.75;1780188;79;21038;-60
2022/01/16 07:49:18;;;;;;;10.18;2.85;;;;;;;2.38;70.71;148266.31;1790391;79;21019;-61
2022/01/16 07:51:46;;;;;;;9.98;3.40;;;;;;;2.38;70.34;148266.31;1787742;79;21089;-61
2022/01/16 07:54:13;;;;;;;9.03;3.10;;;;;;;2.38;70.27;148266.31;1772547;80;21791;-61
2022/01/16 07:56:39;;;;;;;7.80;3.05;;;;;;;2.39;69.90;148267.63;1775226;80;21112;-61
2022/01/16 07:59:07;;;;;;;7.75;3.33;;;;;;;2.41;69.69;148272.78;1792365;79;20957;-61
2022/01/16 08:01:34;;;;;;;8.90;3.72;;;;;;;2.40;69.66;148271.47;1784025;79;20994;-62
2022/01/16 08:04:00;;;;;;;8.70;3.12;;;;;;;2.45;69.68;148283.09;1793859;78;21029;-62
2022/01/16 08:06:27;;;;;;;9.13;3.05;;;;;;;2.52;69.68;148301.13;1746469;82;21131;-61
2022/01/16 08:08:54;;;;;;;7.42;2.55;;;;;;;2.56;69.07;148311.48;1782473;79;21673;-61
2022/01/16 08:11:20;;;;;;;10.60;3.40;;;;;;;2.60;68.58;148319.22;1791946;79;21145;-61
2022/01/16 08:13:47;;;;;;;13.35;3.40;;;;;;;2.58;68.77;148316.64;1769410;79;21524;-61
2022/01/16 08:16:15;;;;;;;6.15;2.98;;;;;;;2.62;68.56;148325.64;1789610;79;21025;-61
2022/01/16 08:18:43;;;;;;;8.83;3.40;;;;;;;2.65;68.52;148332.11;1788147;79;22356;-61
2022/01/16 08:21:09;;;;;;;9.00;3.45;;;;;;;2.69;68.29;148342.42;1766189;80;21070;-61
2022/01/16 08:23:36;;;;;;;11.38;3.12;;;;;;;2.69;68.17;148343.73;1786096;79;21035;-61
2022/01/16 08:26:04;;;;;;;7.90;2.87;;;;;;;2.70;67.89;148345.00;1789682;79;20980;-61
2022/01/16 08:28:31;;;;;;;13.80;2.98;;;;;;;2.72;67.99;148351.47;1779660;80;21077;-60
2022/01/16 08:30:58;;;;;;;9.98;3.20;;;;;;;2.75;67.65;148357.88;1792659;78;21856;-60
2022/01/16 08:33:24;;;;;;;9.93;2.80;;;;;;;2.80;67.64;148370.81;1789993;79;21070;-60
2022/01/16 08:35:51;;;;;;;12.58;2.58;;;;;;;2.82;67.39;148375.97;1789372;78;21497;-61
2022/01/16 08:38:17;;;;;;;7.75;2.37;;;;;;;2.82;67.12;148375.97;1794539;79;21120;-62
2022/01/16 08:40:44;;;;;;;10.40;2.95;;;;;;;2.85;66.99;148383.70;1789912;79;21060;-61
2022/01/16 08:43:11;;;;;;;7.92;2.87;;;;;;;2.89;67.01;148392.75;1796314;79;21717;-61
2022/01/16 08:45:38;;;;;;;10.95;2.80;;;;;;;2.95;66.86;148406.91;1803566;79;21024;-61
2022/01/16 08:48:05;;;;;;;8.98;2.70;;;;;;;2.98;66.28;148414.64;1801280;78;21071;-60
2022/01/16 08:50:34;;;;;;;9.23;2.90;;;;;;;2.95;65.79;148406.91;1802028;78;21090;-60
2022/01/16 08:53:00;;;;;;;8.43;2.87;;;;;;;2.91;65.94;148396.59;1809093;79;21534;-60
2022/01/16 08:55:27;;;;;;;8.00;3.37;;;;;;;2.89;66.04;148391.44;1777535;79;21119;-62
2022/01/16 08:57:53;;;;;;;6.00;2.47;;;;;;;2.89;66.02;148392.75;1785121;79;21752;-61
2022/01/16 09:00:20;;;;;;;8.10;2.62;;;;;;;2.90;65.81;148394.02;1768954;80;21028;-62
2022/01/16 09:02:47;;;;;;;8.43;2.75;;;;;;;2.85;65.91;148382.39;1800973;79;21063;-61
2022/01/16 09:05:14;;;;;;;7.35;2.70;;;;;;;2.86;65.89;148386.28;1789708;79;22144;-61
2022/01/16 09:07:40;;;;;;;8.13;2.85;;;;;;;2.89;65.85;148391.44;1795844;79;21513;-61
2022/01/16 09:10:09;;;;;;;10.43;3.37;;;;;;;2.89;65.93;148392.75;1794983;78;20963;-62
2022/01/16 09:12:37;;;;;;;12.58;3.70;;;;;;;2.94;65.99;148405.64;1779203;79;21105;-61
2022/01/16 09:15:09;;;;;;;8.65;3.17;;;;;;;3.02;65.72;148425.00;1803222;79;21040;-60
2022/01/16 09:17:37;;;;;;;6.67;3.22;;;;;;;3.09;65.71;148443.05;1777224;79;21138;-61
2022/01/16 09:20:05;;;;;;;9.85;3.30;;;;;;;3.18;65.61;148463.67;1793975;79;21129;-61
2022/01/16 09:22:33;;;;;;;8.85;3.30;;;;;;;3.28;65.60;148489.50;1795627;79;21505;-61
2022/01/16 09:25:00;;;;;;;10.05;3.30;;;;;;;3.38;65.40;148515.30;1786002;79;21925;-62
2022/01/16 09:27:26;;;;;;;10.45;3.50;;;;;;;3.49;64.68;148541.12;1803473;79;21068;-62
2022/01/16 09:29:53;;;;;;;10.58;3.42;;;;;;;3.51;64.31;148547.56;1773551;79;21059;-62
2022/01/16 09:32:19;;;;;;;8.08;2.72;;;;;;;3.53;64.35;148552.72;1738979;80;21810;-62
2022/01/16 09:34:46;;;;;;;10.55;3.47;;;;;;;3.61;64.32;148572.09;1764990;79;21051;-62
2022/01/16 09:37:13;;;;;;;6.10;2.33;;;;;;;3.72;64.19;148600.50;1740258;80;21075;-62
2022/01/16 09:39:39;;;;;;;9.35;3.10;;;;;;;3.81;63.42;148621.14;1783099;79;21024;-62
2022/01/16 09:42:07;;;;;;;7.42;2.87;;;;;;;3.83;62.74;148627.61;1801754;79;21089;-62
2022/01/16 09:44:37;;;;;;;7.42;3.08;;;;;;;3.81;62.48;148622.45;1800061;79;21593;-61
2022/01/16 09:47:05;;;;;;;7.90;3.27;;;;;;;3.81;62.72;148621.14;1744578;80;21032;-61
2022/01/16 09:49:32;;;;;;;7.65;2.85;;;;;;;3.87;62.62;148636.67;1783448;79;21306;-62
2022/01/16 09:51:58;;;;;;;7.72;2.62;;;;;;;3.93;62.39;148652.16;1776282;80;21609;-61
2022/01/16 09:54:25;;;;;;;8.35;2.80;;;;;;;3.97;62.04;148662.47;1801395;79;21535;-61
2022/01/16 09:56:52;;;;;;;8.38;2.77;;;;;;;3.99;61.47;148667.63;1776931;79;22191;-61
2022/01/16 09:59:18;;;;;;;8.60;2.90;;;;;;;4.01;61.50;148672.78;1797439;79;21063;-61
2022/01/16 10:01:45;;;;;;;7.05;2.87;;;;;;;4.06;61.53;148683.11;1779432;80;21603;-62
2022/01/16 10:04:43;;;;;;;7.17;3.10;;;;;;;4.13;61.29;148701.22;1781733;79;21088;-61
2022/01/16 10:07:15;;;;;;;7.92;2.77;;;;;;;4.17;60.71;148711.53;1797315;79;21023;-63
2022/01/16 10:09:46;;;;;;;6.33;2.77;;;;;;;4.16;60.65;148708.97;1793430;79;21095;-61
2022/01/16 10:12:15;;;;;;;6.85;2.62;;;;;;;4.17;60.04;148711.53;1765553;81;21120;-61
2022/01/16 10:14:48;;;;;;;8.48;3.45;;;;;;;4.15;60.16;148706.38;1734143;81;21627;-60
2022/01/16 10:17:20;;;;;;;7.37;2.70;;;;;;;4.17;60.15;148711.53;1734080;82;21084;-61
2022/01/16 10:20:01;;;;;;;8.23;3.02;;;;;;;4.21;59.99;148721.86;1760553;80;21036;-62
2022/01/16 10:22:43;;;;;;;12.98;4.28;;;;;;;4.27;59.05;148736.08;1737018;80;21726;-63
2022/01/16 10:25:11;;;;;;;7.15;2.95;;;;;;;4.15;58.92;148706.38;1759010;81;21127;-61
2022/01/16 10:27:39;;;;;;;11.25;4.37;;;;;;;4.15;59.37;148706.38;1739357;81;21014;-61
2022/01/16 10:30:08;;;;;;;5.58;2.60;;;;;;;4.21;59.31;148721.86;1766489;81;21340;-62
2022/01/16 10:32:43;;;;;;;8.95;2.70;;;;;;;4.24;58.33;148729.61;1737211;80;21400;-62
2022/01/16 10:35:23;;;;;;;;;;;;;;;4.25;58.66;148732.19;1803114;79;22304;-60
2022/01/16 10:37:54;;;;;;;7.65;2.40;;;;;;;4.30;58.57;148745.09;1791059;79;20180;-61
2022/01/16 10:40:33;;;;;;;7.58;3.00;;;;;;;4.38;58.53;148763.20;1787394;79;21166;-61
2022/01/16 10:43:05;;;;;;;6.97;2.87;;;;;;;4.37;57.61;148760.62;1787156;79;21098;-60
2022/01/16 10:45:29;;;;;;;6.53;2.67;;;;;;;4.34;57.76;148754.14;1797925;78;21082;-62
2022/01/16 10:47:58;;;;;;;7.50;3.10;;;;;;;4.34;57.82;148754.14;1768817;79;21759;-61
2022/01/16 10:50:41;;;;;;;4.72;2.55;;;;;;;4.35;57.59;148756.73;1775793;79;20993;-62
2022/01/16 10:53:15;;;;;;;6.65;2.62;;;;;;;4.34;57.21;148752.87;1796674;79;21114;-61
2022/01/16 10:55:51;;;;;;;6.97;2.17;;;;;;;4.29;57.29;148742.50;1789425;79;21064;-61
2022/01/16 10:58:39;;;;;;;6.55;2.58;;;;;;;4.37;57.75;148760.62;1764137;81;21498;-62
2022/01/16 11:01:13;;;;;;;5.80;2.60;;;;;;;4.43;57.18;148776.11;1763869;81;21573;-61
2022/01/16 11:03:46;;;;;;;5.70;2.35;;;;;;;4.46;56.80;148783.84;1764000;81;20984;-62
2022/01/16 11:06:23;;;;;;;4.90;2.10;;;;;;;4.46;56.59;148782.58;1776113;79;20913;-61
2022/01/16 11:08:57;;;;;;;8.33;2.90;;;;;;;4.48;56.46;148789.02;1773252;79;21455;-60
2022/01/16 11:11:25;;;;;;;13.05;2.35;;;;;;;4.46;55.64;148783.84;1769373;79;21048;-61
2022/01/16 11:13:54;;;;;;;11.60;3.02;;;;;;;4.39;55.44;148767.05;1792461;79;21122;-61
2022/01/16 11:16:23;;;;;;;9.18;2.60;;;;;;;4.33;54.66;148750.30;1776893;79;21440;-61
2022/01/16 11:18:51;;;;;;;5.45;2.10;;;;;;;4.30;54.65;148745.09;1781820;79;21545;-62
2022/01/16 11:21:31;;;;;;;5.35;2.60;;;;;;;4.29;54.70;148742.50;1767379;80;21053;-60
2022/01/16 11:24:24;;;;;;;4.33;2.00;;;;;;;4.27;54.53;148737.34;1786361;79;21395;-60
2022/01/16 11:26:31;;;;;;;6.62;2.02;;;;;;;4.20;53.91;148719.28;1796697;79;21013;-61
2022/01/16 11:28:59;;;;;;;7.22;2.60;;;;;;;4.17;54.09;148711.53;1787198;79;21465;-61
2022/01/16 11:31:25;;;;;;;7.80;2.10;;;;;;;4.20;54.08;148717.97;1800021;79;21019;-60
2022/01/16 11:33:52;;;;;;;7.55;2.15;;;;;;;4.21;54.29;148721.86;1792656;79;21087;-61
2022/01/16 11:36:23;;;;;;;8.10;2.92;;;;;;;4.28;54.55;148739.94;1746984;80;21044;-61
2022/01/16 11:39:01;;;;;;;10.30;3.77;;;;;;;4.38;53.89;148763.20;1744397;81;21087;-62
2022/01/16 11:41:34;;;;;;;11.18;3.33;;;;;;;4.36;53.02;148759.31;1727504;82;20998;-61
2022/01/16 11:44:23;;;;;;;11.73;3.30;;;;;;;4.36;53.29;148758.05;1743599;82;21387;-61
2022/01/16 11:46:52;;;;;;;6.80;2.50;;;;;;;4.33;52.99;148750.30;1815490;78;21062;-62
2022/01/16 11:49:34;;;;;;;10.10;3.20;;;;;;;4.33;52.99;148750.30;1808725;79;21049;-62
2022/01/16 11:52:18;;;;;;;20.20;3.50;;;;;;;4.27;53.36;148737.34;1813140;78;21430;-61
2022/01/16 11:54:49;;;;;;;6.85;2.60;;;;;;;4.17;53.12;148711.53;1787845;79;21105;-62
2022/01/16 11:57:24;;;;;;;7.37;2.40;;;;;;;4.17;53.12;148711.53;1790427;79;21058;-61
2022/01/16 12:00:14;;;;;;;8.38;2.30;;;;;;;3.97;53.58;148662.47;1799560;79;21447;-62
2022/01/16 12:02:45;;;;;;;6.83;2.12;;;;;;;3.97;53.58;148662.47;1805871;79;21063;-61
2022/01/16 12:05:13;;;;;;;7.92;2.40;;;;;;;3.92;53.04;148649.56;1786642;79;21064;-61
2022/01/16 12:07:45;;;;;;;9.85;2.67;;;;;;;3.85;52.74;148631.45;1774776;79;21034;-63
2022/01/16 12:10:10;;;;;;;4.95;1.98;;;;;;;3.85;52.74;148631.45;1806296;79;21022;-60
2022/01/16 12:12:37;;;;;;;4.70;1.60;;;;;;;3.88;52.75;148639.25;1808353;78;21052;-60
2022/01/16 12:15:11;;;;;;;8.98;1.80;;;;;;;3.92;52.57;148649.56;1779661;79;21073;-60
2022/01/16 12:17:51;;;;;;;6.70;2.02;;;;;;;3.98;52.35;148663.78;1801231;79;20962;-60
2022/01/16 12:20:26;;;;;;;4.72;2.08;;;;;;;3.99;51.67;148667.63;1787176;79;21534;-59